createdAt,value
2017-06-25T00:01:34.223Z,14.97
2017-06-25T00:04:02.600Z,8.27
2017-06-25T00:06:30.976Z,8.80
2017-06-25T00:09:00.007Z,8.90
2017-06-25T00:11:28.780Z,9.33
2017-06-25T00:13:57.552Z,9.40
2017-06-25T00:16:26.112Z,8.43
2017-06-25T00:18:54.488Z,9.47
2017-06-25T00:21:23.092Z,9.70
2017-06-25T00:23:52.404Z,9.67
2017-06-25T00:26:20.784Z,9.40
2017-06-25T00:28:49.163Z,11.30
2017-06-25T00:31:17.868Z,8.93
2017-06-25T00:33:46.639Z,9.77
2017-06-25T00:36:15.016Z,11.73
2017-06-25T00:38:43.721Z,9.57
2017-06-25T00:41:12.499Z,10.10
2017-06-25T00:43:41.297Z,9.43
2017-06-25T00:46:10.613Z,9.80
2017-06-25T00:48:39.375Z,9.53
2017-06-25T00:51:07.785Z,9.57
2017-06-25T00:53:41.983Z,10.50
2017-06-25T00:56:10.352Z,8.10
2017-06-25T00:58:38.732Z,9.83
2017-06-25T01:01:07.316Z,10.33
2017-06-25T01:03:35.699Z,7.63
2017-06-25T01:06:04.408Z,9.63
2017-06-25T01:08:33.480Z,9.30
2017-06-25T01:11:01.860Z,9.40
2017-06-25T01:13:30.242Z,10.23
2017-06-25T01:15:58.831Z,9.83
2017-06-25T01:18:27.207Z,9.47
2017-06-25T01:20:55.587Z,10.10
2017-06-25T01:23:24.476Z,9.77
2017-06-25T01:25:52.857Z,11.30
2017-06-25T01:28:21.291Z,11.80
2017-06-25T01:30:50.023Z,10.03
2017-06-25T01:33:18.403Z,9.90
2017-06-25T01:35:46.775Z,9.90
2017-06-25T01:38:15.371Z,10.20
2017-06-25T01:40:43.756Z,11.23
2017-06-25T01:43:12.131Z,9.53
2017-06-25T01:45:40.792Z,10.03
2017-06-25T01:48:09.171Z,10.53
2017-06-25T01:50:37.551Z,19.27
2017-06-25T01:53:06.156Z,10.50
2017-06-25T01:55:34.533Z,9.40
2017-06-25T01:58:02.908Z,9.97
2017-06-25T02:00:31.495Z,9.30
2017-06-25T02:02:59.881Z,10.50
2017-06-25T02:05:28.259Z,10.27
2017-06-25T02:07:57.171Z,10.00
2017-06-25T02:10:25.946Z,12.60
2017-06-25T02:12:54.324Z,9.33
2017-06-25T02:15:23.113Z,8.93
2017-06-25T02:17:51.819Z,10.13
2017-06-25T02:20:20.591Z,10.27
2017-06-25T02:22:49.137Z,9.43
2017-06-25T02:25:17.736Z,9.23
2017-06-25T02:27:46.112Z,9.83
2017-06-25T02:30:14.821Z,14.20
2017-06-25T02:32:43.204Z,10.17
2017-06-25T02:35:11.907Z,9.17
2017-06-25T02:37:40.981Z,9.40
2017-06-25T02:40:09.359Z,10.77
2017-06-25T02:42:37.746Z,11.37
2017-06-25T02:45:06.589Z,10.10
2017-06-25T02:47:35.239Z,9.80
2017-06-25T02:50:04.011Z,9.67
2017-06-25T02:52:32.595Z,9.60
2017-06-25T02:55:00.981Z,11.10
2017-06-25T02:57:29.459Z,16.97
2017-06-25T02:59:58.120Z,12.50
2017-06-25T03:02:26.500Z,14.33
2017-06-25T03:04:54.890Z,12.40
2017-06-25T03:07:23.691Z,16.40
2017-06-25T03:09:52.084Z,18.63
2017-06-25T03:12:20.863Z,18.03
2017-06-25T03:14:49.547Z,16.33
2017-06-25T03:17:17.931Z,17.93
2017-06-25T03:19:46.324Z,17.17
2017-06-25T03:22:15.503Z,16.80
2017-06-25T03:24:43.887Z,18.80
2017-06-25T03:27:12.572Z,22.43
2017-06-25T03:29:41.265Z,18.07
2017-06-25T03:32:09.650Z,16.33
2017-06-25T03:34:38.030Z,18.53
2017-06-25T03:37:06.992Z,18.73
2017-06-25T03:39:35.380Z,18.63
2017-06-25T03:42:03.765Z,17.73
2017-06-25T03:44:32.459Z,20.50
2017-06-25T03:47:00.839Z,19.43
2017-06-25T03:49:29.225Z,18.67
2017-06-25T03:51:58.012Z,19.67
2017-06-25T03:54:26.495Z,19.70
2017-06-25T03:56:54.871Z,20.60
2017-06-25T03:59:23.759Z,22.63
2017-06-25T04:01:52.139Z,19.13
2017-06-25T04:04:20.847Z,23.53
2017-06-25T04:06:49.412Z,20.27
2017-06-25T04:09:17.791Z,21.23
2017-06-25T04:11:46.171Z,17.23
2017-06-25T04:14:14.964Z,17.87
2017-06-25T04:16:43.343Z,17.27
2017-06-25T04:19:11.724Z,18.67
2017-06-25T04:21:40.411Z,17.60
2017-06-25T04:24:08.796Z,16.63
2017-06-25T04:26:37.579Z,15.80
2017-06-25T04:29:06.679Z,14.20
2017-06-25T04:31:35.060Z,17.20
2017-06-25T04:34:03.443Z,15.30
2017-06-25T04:36:32.857Z,14.60
2017-06-25T04:39:01.641Z,15.43
2017-06-25T04:41:30.421Z,13.73
2017-06-25T04:43:58.995Z,13.30
2017-06-25T04:46:27.375Z,13.67
2017-06-25T04:48:55.766Z,13.33
2017-06-25T04:51:24.442Z,13.10
2017-06-25T04:53:53.147Z,12.73
2017-06-25T04:56:21.923Z,13.33
2017-06-25T04:58:50.508Z,11.70
2017-06-25T05:01:18.887Z,14.93
2017-06-25T05:03:47.278Z,11.03
2017-06-25T05:06:16.467Z,12.07
2017-06-25T05:08:44.851Z,11.27
2017-06-25T05:11:13.551Z,11.40
2017-06-25T05:13:42.628Z,11.73
2017-06-25T05:16:11.004Z,9.87
2017-06-25T05:18:39.379Z,10.60
2017-06-25T05:21:08.860Z,10.90
2017-06-25T05:23:37.243Z,10.13
2017-06-25T05:26:05.624Z,10.13
2017-06-25T05:28:34.207Z,9.63
2017-06-25T05:31:02.911Z,9.63
2017-06-25T05:33:31.283Z,10.13
2017-06-25T05:35:59.879Z,10.40
2017-06-25T05:38:28.255Z,9.37
2017-06-25T05:40:56.645Z,9.03
2017-06-25T05:43:25.439Z,7.93
2017-06-25T05:45:53.819Z,14.10
2017-06-25T05:48:22.200Z,8.07
2017-06-25T05:50:50.775Z,8.17
2017-06-25T05:53:19.159Z,7.77
2017-06-25T05:55:47.535Z,8.00
2017-06-25T05:58:16.223Z,8.17
2017-06-25T06:00:44.599Z,7.73
2017-06-25T06:03:12.967Z,7.17
2017-06-25T06:05:41.570Z,7.73
2017-06-25T06:08:09.939Z,8.13
2017-06-25T06:10:38.316Z,7.10
2017-06-25T06:13:07.241Z,6.63
2017-06-25T06:15:36.013Z,7.33
2017-06-25T06:18:04.395Z,9.40
2017-06-25T06:20:33.099Z,7.57
2017-06-25T06:23:01.878Z,11.43
2017-06-25T06:25:30.652Z,8.43
2017-06-25T06:27:59.350Z,8.80
2017-06-25T06:30:27.729Z,12.10
2017-06-25T06:32:56.327Z,8.90
2017-06-25T06:35:25.406Z,9.70
2017-06-25T06:37:53.779Z,8.83
2017-06-25T06:40:22.156Z,8.83
2017-06-25T06:42:50.757Z,9.07
2017-06-25T06:45:19.531Z,10.90
2017-06-25T06:47:47.911Z,10.73
2017-06-25T06:50:16.623Z,10.77
2017-06-25T06:52:45.392Z,9.80
2017-06-25T06:55:13.824Z,10.00
2017-06-25T06:57:42.512Z,11.67
2017-06-25T07:00:10.892Z,11.93
2017-06-25T07:02:39.275Z,13.83
2017-06-25T07:05:07.875Z,10.37
2017-06-25T07:07:36.251Z,8.47
2017-06-25T07:10:04.632Z,10.10
2017-06-25T07:12:33.242Z,26.10
2017-06-25T07:15:01.624Z,12.17
2017-06-25T07:17:30.331Z,9.00
2017-06-25T07:19:59.273Z,8.83
2017-06-25T07:22:27.657Z,11.37
2017-06-25T07:24:56.035Z,9.47
2017-06-25T07:27:24.647Z,8.30
2017-06-25T07:29:53.076Z,8.80
2017-06-25T07:32:21.460Z,8.40
2017-06-25T07:34:50.479Z,8.70
2017-06-25T07:37:18.855Z,8.20
2017-06-25T07:39:47.223Z,9.57
2017-06-25T07:42:15.801Z,6.87
2017-06-25T07:44:44.184Z,5.50
2017-06-25T07:47:12.562Z,5.30
2017-06-25T07:49:41.296Z,5.40
2017-06-25T07:52:09.667Z,5.33
2017-06-25T07:54:38.279Z,12.40
2017-06-25T07:57:07.247Z,4.03
2017-06-25T07:59:35.618Z,4.60
2017-06-25T08:02:04.239Z,4.10
2017-06-25T08:04:33.343Z,5.40
2017-06-25T08:07:02.034Z,4.90
2017-06-25T08:09:30.415Z,4.30
2017-06-25T08:11:59.072Z,14.43
2017-06-25T08:14:27.447Z,4.23
2017-06-25T08:16:55.823Z,3.97
2017-06-25T08:19:24.384Z,8.50
2017-06-25T08:21:52.762Z,4.57
2017-06-25T08:24:21.141Z,4.20
2017-06-25T08:26:49.696Z,4.10
2017-06-25T08:29:18.084Z,4.83
2017-06-25T08:31:46.461Z,10.60
2017-06-25T08:34:15.096Z,5.37
2017-06-25T08:36:43.707Z,5.50
2017-06-25T08:39:12.474Z,4.93
2017-06-25T08:41:41.260Z,6.50
2017-06-25T08:44:09.631Z,5.27
2017-06-25T08:46:38.005Z,7.33
2017-06-25T08:49:06.932Z,4.70
2017-06-25T08:51:35.695Z,4.10
2017-06-25T08:54:04.067Z,5.20
2017-06-25T08:56:32.767Z,5.07
2017-06-25T08:59:01.134Z,4.50
2017-06-25T09:01:29.507Z,4.07
2017-06-25T09:03:58.126Z,4.80
2017-06-25T09:06:26.899Z,4.77
2017-06-25T09:08:55.268Z,3.53
2017-06-25T09:11:23.865Z,5.70
2017-06-25T09:13:52.658Z,6.83
2017-06-25T09:16:21.030Z,4.57
2017-06-25T09:18:49.925Z,4.53
2017-06-25T09:21:18.301Z,4.40
2017-06-25T09:23:46.667Z,3.63
2017-06-25T09:26:15.268Z,7.83
2017-06-25T09:28:43.642Z,3.93
2017-06-25T09:31:12.012Z,4.43
2017-06-25T09:33:40.771Z,7.97
2017-06-25T09:36:09.138Z,5.20
2017-06-25T09:38:37.783Z,6.33
2017-06-25T09:41:06.690Z,4.93
2017-06-25T09:43:35.463Z,4.30
2017-06-25T09:46:03.837Z,3.93
2017-06-25T09:48:32.432Z,4.77
2017-06-25T09:51:01.135Z,4.67
2017-06-25T09:53:29.890Z,4.13
2017-06-25T09:55:58.586Z,4.60
2017-06-25T09:58:26.960Z,13.07
2017-06-25T10:00:55.576Z,5.43
2017-06-25T10:03:24.339Z,4.00
2017-06-25T10:05:52.709Z,3.20
2017-06-25T10:08:21.084Z,3.43
2017-06-25T10:10:49.683Z,3.33
2017-06-25T10:13:18.050Z,6.10
2017-06-25T10:15:46.432Z,3.10
2017-06-25T10:18:15.027Z,2.37
2017-06-25T10:20:43.406Z,7.67
2017-06-25T10:23:12.075Z,2.60
2017-06-25T10:25:40.679Z,2.87
2017-06-25T10:28:09.051Z,4.83
2017-06-25T10:30:37.420Z,2.20
2017-06-25T10:33:06.019Z,1.80
2017-06-25T10:35:34.387Z,2.60
2017-06-25T10:38:02.755Z,2.47
2017-06-25T10:40:31.775Z,2.37
2017-06-25T10:43:00.143Z,3.43
2017-06-25T10:45:28.514Z,1.80
2017-06-25T10:47:57.127Z,3.03
2017-06-25T10:50:25.499Z,2.07
2017-06-25T10:52:53.871Z,3.43
2017-06-25T10:55:22.562Z,2.10
2017-06-25T10:57:51.175Z,3.20
2017-06-25T11:00:19.542Z,2.70
2017-06-25T11:02:48.645Z,2.60
2017-06-25T11:05:17.406Z,1.80
2017-06-25T11:07:45.775Z,2.20
2017-06-25T11:10:14.578Z,2.00
2017-06-25T11:12:42.946Z,2.70
2017-06-25T11:15:11.324Z,2.00
2017-06-25T11:17:39.933Z,2.00
2017-06-25T11:20:08.315Z,4.03
2017-06-25T11:22:36.682Z,1.53
2017-06-25T11:25:05.370Z,10.53
2017-06-25T11:27:33.738Z,2.50
2017-06-25T11:30:02.107Z,1.70
2017-06-25T11:32:30.916Z,1.77
2017-06-25T11:34:59.320Z,2.30
2017-06-25T11:37:28.086Z,2.00
2017-06-25T11:39:56.672Z,2.00
2017-06-25T11:42:25.349Z,1.80
2017-06-25T11:44:53.722Z,1.53
2017-06-25T11:47:22.323Z,2.90
2017-06-25T11:49:50.691Z,1.27
2017-06-25T11:52:19.062Z,1.20
2017-06-25T11:54:47.675Z,2.57
2017-06-25T11:57:16.048Z,1.83
2017-06-25T11:59:44.419Z,1.10
2017-06-25T12:02:13.015Z,1.50
2017-06-25T12:04:41.387Z,3.37
2017-06-25T12:07:09.774Z,8.73
2017-06-25T12:09:38.559Z,15.87
2017-06-25T12:12:06.931Z,2.57
2017-06-25T12:14:35.303Z,2.73
2017-06-25T12:17:04.007Z,4.47
2017-06-25T12:19:32.379Z,6.73
2017-06-25T12:22:00.746Z,5.53
2017-06-25T12:24:29.350Z,16.23
2017-06-25T12:26:57.724Z,4.47
2017-06-25T12:29:26.091Z,3.73
2017-06-25T12:31:55.127Z,4.93
2017-06-25T12:34:23.894Z,4.83
2017-06-25T12:36:52.265Z,4.50
2017-06-25T12:39:20.863Z,5.13
2017-06-25T12:41:49.570Z,3.13
2017-06-25T12:44:18.115Z,3.57
2017-06-25T12:46:46.711Z,3.50
2017-06-25T12:49:15.088Z,3.83
2017-06-25T12:51:43.459Z,4.27
2017-06-25T12:54:12.159Z,4.00
2017-06-25T12:56:40.531Z,3.50
2017-06-25T12:59:08.909Z,3.73
2017-06-25T13:01:37.503Z,16.60
2017-06-25T13:04:05.877Z,5.23
2017-06-25T13:06:34.252Z,8.90
2017-06-25T13:09:03.279Z,4.13
2017-06-25T13:11:32.050Z,4.17
2017-06-25T13:14:00.422Z,3.87
2017-06-25T13:16:29.211Z,3.37
2017-06-25T13:18:57.584Z,3.00
2017-06-25T13:21:25.956Z,2.90
2017-06-25T13:23:54.543Z,2.90
2017-06-25T13:26:22.915Z,2.73
2017-06-25T13:28:51.318Z,3.87
2017-06-25T13:31:20.106Z,12.97
2017-06-25T13:33:48.540Z,4.67
2017-06-25T13:36:16.915Z,4.23
2017-06-25T13:38:45.755Z,3.10
2017-06-25T13:41:14.131Z,3.40
2017-06-25T13:43:42.822Z,3.07
2017-06-25T13:46:11.738Z,4.60
2017-06-25T13:48:40.511Z,2.83
2017-06-25T13:51:08.890Z,18.87
2017-06-25T13:53:37.567Z,3.10
2017-06-25T13:56:05.939Z,3.00
2017-06-25T13:58:34.558Z,2.33
2017-06-25T14:01:03.644Z,6.13
2017-06-25T14:03:32.019Z,6.00
2017-06-25T14:06:00.387Z,3.53
2017-06-25T14:08:28.966Z,2.80
2017-06-25T14:10:57.337Z,3.23
2017-06-25T14:13:25.707Z,6.03
2017-06-25T14:15:54.320Z,2.23
2017-06-25T14:18:22.694Z,1.80
2017-06-25T14:20:51.058Z,2.40
2017-06-25T14:23:19.663Z,3.50
2017-06-25T14:25:48.038Z,1.93
2017-06-25T14:28:16.483Z,1.97
2017-06-25T14:30:45.116Z,3.13
2017-06-25T14:33:13.487Z,3.93
2017-06-25T14:35:41.859Z,1.97
2017-06-25T14:38:10.451Z,4.23
2017-06-25T14:40:40.068Z,7.97
2017-06-25T14:43:08.443Z,4.90
2017-06-25T14:45:37.335Z,2.60
2017-06-25T14:48:05.771Z,2.90
2017-06-25T14:50:34.151Z,2.43
2017-06-25T14:53:03.807Z,2.80
2017-06-25T14:55:32.177Z,7.73
2017-06-25T14:58:00.547Z,3.77
2017-06-25T15:00:29.249Z,2.37
2017-06-25T15:02:57.618Z,2.10
2017-06-25T15:05:26.006Z,2.60
2017-06-25T15:07:54.690Z,2.43
2017-06-25T15:10:23.886Z,2.67
2017-06-25T15:12:52.258Z,3.67
2017-06-25T15:15:20.855Z,2.87
2017-06-25T15:17:49.222Z,3.07
2017-06-25T15:20:17.599Z,3.57
2017-06-25T15:22:46.741Z,4.90
2017-06-25T15:25:15.512Z,5.00
2017-06-25T15:27:43.888Z,12.83
2017-06-25T15:30:12.675Z,4.53
2017-06-25T15:32:41.046Z,4.63
2017-06-25T15:35:09.414Z,6.03
2017-06-25T15:37:38.150Z,3.23
2017-06-25T15:40:06.515Z,4.67
2017-06-25T15:42:35.618Z,4.93
2017-06-25T15:45:04.692Z,3.50
2017-06-25T15:47:33.462Z,5.30
2017-06-25T15:50:02.086Z,3.93
2017-06-25T15:52:31.264Z,8.20
2017-06-25T15:54:59.632Z,6.87
2017-06-25T15:57:28.002Z,7.20
2017-06-25T15:59:56.603Z,4.70
2017-06-25T16:02:24.974Z,4.40
2017-06-25T16:04:53.342Z,5.43
2017-06-25T16:07:21.956Z,6.13
2017-06-25T16:09:50.322Z,4.57
2017-06-25T16:12:18.700Z,6.43
2017-06-25T16:14:47.083Z,4.17
2017-06-25T16:17:15.495Z,4.33
2017-06-25T16:19:44.766Z,7.37
2017-06-25T16:22:13.145Z,5.33
2017-06-25T16:24:41.523Z,4.70
2017-06-25T16:27:09.906Z,3.97
2017-06-25T16:29:38.295Z,4.20
2017-06-25T16:32:06.707Z,3.90
2017-06-25T16:34:35.079Z,6.10
2017-06-25T16:37:03.466Z,3.50
2017-06-25T16:39:31.831Z,4.83
2017-06-25T16:42:00.962Z,7.07
2017-06-25T16:44:30.142Z,4.30
2017-06-25T16:46:58.519Z,3.77
2017-06-25T16:49:26.907Z,9.63
2017-06-25T16:51:55.278Z,4.90
2017-06-25T16:54:23.847Z,5.00
2017-06-25T16:56:52.715Z,4.23
2017-06-25T16:59:21.086Z,3.63
2017-06-25T17:01:49.471Z,7.10
2017-06-25T17:04:17.842Z,2.90
2017-06-25T17:06:46.563Z,5.47
2017-06-25T17:09:15.332Z,4.50
2017-06-25T17:11:44.015Z,3.20
2017-06-25T17:14:12.403Z,4.53
2017-06-25T17:16:41.107Z,4.20
2017-06-25T17:19:09.891Z,4.53
2017-06-25T17:21:38.666Z,3.93
2017-06-25T17:24:07.055Z,5.00
2017-06-25T17:26:35.430Z,3.80
2017-06-25T17:29:03.812Z,4.50
2017-06-25T17:31:32.187Z,5.47
2017-06-25T17:34:00.573Z,7.03
2017-06-25T17:36:28.948Z,6.80
2017-06-25T17:38:57.343Z,2.90
2017-06-25T17:41:26.106Z,2.80
2017-06-25T17:43:54.693Z,3.00
2017-06-25T17:46:23.066Z,4.00
2017-06-25T17:48:52.007Z,3.40
2017-06-25T17:51:20.398Z,3.23
2017-06-25T17:53:48.771Z,4.80
2017-06-25T17:56:17.154Z,3.50
2017-06-25T17:58:45.522Z,3.33
2017-06-25T18:01:13.916Z,3.40
2017-06-25T18:03:42.831Z,3.50
2017-06-25T18:06:11.335Z,4.53
2017-06-25T18:08:39.706Z,3.67
2017-06-25T18:11:08.083Z,4.03
2017-06-25T18:13:36.466Z,5.67
2017-06-25T18:16:04.840Z,3.73
2017-06-25T18:18:33.278Z,3.60
2017-06-25T18:21:01.676Z,4.13
2017-06-25T18:23:30.104Z,3.93
2017-06-25T18:26:00.079Z,3.83
2017-06-25T18:28:28.471Z,3.80
2017-06-25T18:30:56.875Z,4.80
2017-06-25T18:33:25.459Z,3.33
2017-06-25T18:35:53.827Z,6.63
2017-06-25T18:38:22.198Z,3.97
2017-06-25T18:40:50.583Z,4.00
2017-06-25T18:43:18.955Z,4.00
2017-06-25T18:45:47.351Z,5.90
2017-06-25T18:48:15.722Z,4.17
2017-06-25T18:50:44.113Z,4.93
2017-06-25T18:53:12.483Z,6.43
2017-06-25T18:55:41.026Z,5.53
2017-06-25T18:58:09.463Z,4.73
2017-06-25T19:00:37.841Z,4.67
2017-06-25T19:03:06.231Z,6.07
2017-06-25T19:05:34.934Z,9.37
2017-06-25T19:08:03.779Z,3.77
2017-06-25T19:10:32.155Z,4.63
2017-06-25T19:13:00.550Z,4.00
2017-06-25T19:15:28.920Z,4.87
2017-06-25T19:17:57.442Z,5.93
2017-06-25T19:20:26.216Z,4.50
2017-06-25T19:22:55.231Z,4.80
2017-06-25T19:25:24.228Z,7.30
2017-06-25T19:27:52.998Z,7.67
2017-06-25T19:30:21.383Z,8.27
2017-06-25T19:32:49.758Z,6.07
2017-06-25T19:35:18.147Z,16.00
2017-06-25T19:37:47.288Z,5.33
2017-06-25T19:40:15.792Z,5.80
2017-06-25T19:42:44.454Z,5.70
2017-06-25T19:45:13.449Z,6.93
2017-06-25T19:47:41.818Z,4.80
2017-06-25T19:50:11.776Z,6.30
2017-06-25T19:52:40.159Z,5.70
2017-06-25T19:55:08.531Z,7.63
2017-06-25T19:57:36.919Z,6.20
2017-06-25T20:00:05.302Z,6.33
2017-06-25T20:02:33.845Z,6.10
2017-06-25T20:05:02.267Z,13.37
2017-06-25T20:07:31.055Z,6.23
2017-06-25T20:09:59.431Z,6.70
2017-06-25T20:12:27.815Z,6.53
2017-06-25T20:14:56.207Z,25.37
2017-06-25T20:17:24.575Z,7.20
2017-06-25T20:19:52.955Z,6.37
2017-06-25T20:22:22.055Z,10.70
2017-06-25T20:24:50.443Z,9.77
2017-06-25T20:27:18.819Z,6.70
2017-06-25T20:29:47.395Z,7.57
2017-06-25T20:32:15.767Z,6.40
2017-06-25T20:34:44.134Z,9.40
2017-06-25T20:37:13.583Z,7.93
2017-06-25T20:39:42.360Z,10.73
2017-06-25T20:42:11.166Z,10.27
2017-06-25T20:44:39.942Z,29.93
2017-06-25T20:47:08.728Z,13.10
2017-06-25T20:49:37.106Z,12.57
2017-06-25T20:52:05.692Z,11.60
2017-06-25T20:54:34.075Z,10.80
2017-06-25T20:57:02.850Z,11.37
2017-06-25T20:59:31.559Z,12.40
2017-06-25T21:02:00.343Z,11.43
2017-06-25T21:04:29.129Z,14.80
2017-06-25T21:06:57.898Z,9.27
2017-06-25T21:09:26.283Z,10.10
2017-06-25T21:11:54.658Z,11.40
2017-06-25T21:14:23.251Z,13.10
2017-06-25T21:16:51.971Z,12.07
2017-06-25T21:19:20.352Z,12.50
2017-06-25T21:21:48.734Z,9.90
2017-06-25T21:24:17.111Z,11.73
2017-06-25T21:26:45.506Z,11.17
2017-06-25T21:29:13.874Z,11.07
2017-06-25T21:31:42.258Z,9.57
2017-06-25T21:34:10.692Z,10.17
2017-06-25T21:36:39.071Z,9.73
2017-06-25T21:39:07.438Z,10.47
2017-06-25T21:41:35.822Z,9.73
2017-06-25T21:44:04.207Z,10.03
2017-06-25T21:46:32.574Z,12.40
2017-06-25T21:49:01.204Z,11.07
2017-06-25T21:51:29.979Z,7.37
2017-06-25T21:53:58.627Z,7.50
2017-06-25T21:56:27.004Z,8.30
2017-06-25T21:58:55.374Z,8.80
2017-06-25T22:01:23.760Z,8.97
2017-06-25T22:03:52.914Z,12.20
2017-06-25T22:06:21.703Z,19.40
2017-06-25T22:08:50.474Z,12.10
2017-06-25T22:11:19.480Z,20.73
2017-06-25T22:13:48.252Z,17.27
2017-06-25T22:16:16.630Z,13.50
2017-06-25T22:18:45.106Z,9.57
2017-06-25T22:21:14.143Z,9.53
2017-06-25T22:23:42.791Z,12.33
2017-06-25T22:26:11.280Z,13.97
2017-06-25T22:28:39.659Z,11.50
2017-06-25T22:31:08.042Z,12.37
2017-06-25T22:33:36.419Z,13.63
2017-06-25T22:36:04.852Z,18.07
2017-06-25T22:38:33.235Z,13.00
2017-06-25T22:41:01.648Z,11.10
2017-06-25T22:43:30.035Z,11.83
2017-06-25T22:45:58.618Z,12.63
2017-06-25T22:48:26.998Z,12.63
2017-06-25T22:50:55.945Z,11.60
2017-06-25T22:53:24.339Z,18.40
2017-06-25T22:55:53.546Z,12.97
2017-06-25T22:58:22.178Z,15.10
2017-06-25T23:00:50.946Z,10.80
2017-06-25T23:03:19.523Z,12.60
2017-06-25T23:05:47.894Z,10.17
2017-06-25T23:08:17.079Z,11.03
2017-06-25T23:10:45.471Z,13.70
2017-06-25T23:13:13.879Z,11.63
2017-06-25T23:15:42.271Z,12.90
2017-06-25T23:18:11.042Z,9.37
2017-06-25T23:20:39.426Z,10.63
2017-06-25T23:23:07.805Z,9.23
2017-06-25T23:25:36.195Z,9.80
2017-06-25T23:28:04.962Z,9.73
2017-06-25T23:30:33.563Z,9.57
2017-06-25T23:33:02.335Z,10.57
2017-06-25T23:35:30.711Z,9.90
2017-06-25T23:37:59.099Z,9.97
2017-06-25T23:40:28.108Z,10.33
2017-06-25T23:42:56.897Z,10.53
2017-06-25T23:45:25.728Z,10.60
2017-06-25T23:47:57.694Z,9.83
2017-06-25T23:50:26.075Z,10.20
2017-06-25T23:52:54.799Z,9.83
2017-06-25T23:55:23.171Z,10.10
2017-06-25T23:57:51.546Z,9.70
